1855 NOT_NAMED (1855021S14076)


IBTrACS version v04r00. Visit IBTrACS website for data access.
Please direct all questions to the IBTrACS Q and A forum

Storm track - Intensity - Wind Radii - Intensity Data - Source Data - All data

Summary Information

Storm ID 1855021S14076
Start Jan 21 06Z
End Jan 28 06Z
ATCF IDs
Track status Best track data.

Storm track plot

Map of storm track

Intensity plots

No Intensity information for this storm


Radial wind information

No radial wind information for this storm


Position and Intensity Table

BASIN ISO_TIME_________ NATURE LAT LON
degrees north degrees east
SI 1855-01-21 06:00:00 NR -13.95 75.55
SI 09:00:00 NR -14.02 75.47
SI 12:00:00 NR -14.10 75.38
SI 15:00:00 NR -14.20 75.28
SI 18:00:00 NR -14.34 75.15
SI 21:00:00 NR -14.51 74.99
SI 1855-01-22 00:00:00 NR -14.73 74.80
SI 03:00:00 NR -14.98 74.60
SI 06:00:00 NR -15.25 74.40
SI 09:00:00 NR -15.54 74.20
SI 12:00:00 NR -15.85 74.01
SI 15:00:00 NR -16.19 73.81
SI 18:00:00 NR -16.55 73.62
SI 21:00:00 NR -16.92 73.43
SI 1855-01-23 00:00:00 NR -17.31 73.25
SI 03:00:00 NR -17.73 73.09
SI 06:00:00 NR -18.20 72.95
SI 09:00:00 NR -18.75 72.83
SI 12:00:00 NR -19.35 72.73
SI 15:00:00 NR -19.98 72.67
SI 18:00:00 NR -20.60 72.66
SI 21:00:00 NR -21.21 72.73
SI 1855-01-24 00:00:00 NR -21.79 72.84
SI 03:00:00 NR -22.31 72.97
SI 06:00:00 NR -22.75 73.10
SI 09:00:00 NR -23.06 73.18
SI 12:00:00 NR -23.29 73.25
SI 15:00:00 NR -23.46 73.33
SI 18:00:00 NR -23.59 73.42
SI 21:00:00 NR -23.71 73.52
SI 1855-01-25 00:00:00 NR -23.81 73.62
SI 03:00:00 NR -23.92 73.73
SI 06:00:00 NR -24.05 73.85
SI 09:00:00 NR -24.25 73.97
SI 12:00:00 NR -24.47 74.09
SI 15:00:00 NR -24.69 74.22
SI 18:00:00 NR -24.91 74.35
SI 21:00:00 NR -25.10 74.48
SI 1855-01-26 00:00:00 NR -25.27 74.61
SI 03:00:00 NR -25.44 74.73
SI 06:00:00 NR -25.60 74.85
SI 09:00:00 NR -25.76 74.96
SI 12:00:00 NR -25.92 75.06
SI 15:00:00 NR -26.07 75.16
SI 18:00:00 NR -26.22 75.26
SI 21:00:00 NR -26.36 75.36
SI 1855-01-27 00:00:00 NR -26.51 75.45
SI 03:00:00 NR -26.65 75.54
SI 06:00:00 NR -26.78 75.62
SI 09:00:00 NR -26.89 75.69
SI 12:00:00 NR -26.97 75.78
SI 15:00:00 NR -27.04 75.87
SI 18:00:00 NR -27.10 75.95
SI 21:00:00 NR -27.15 76.04
SI 1855-01-28 00:00:00 NR -27.20 76.13
SI 03:00:00 NR -27.25 76.21
SI 06:00:00 NR -27.30 76.30

Source Information

Agency Information
USA
TOKYO
CMA
HKO
NEWDELHI
REUNION WMO-Best-Tracks.txt:Line=85:xxxx855013
BOM
NADI
WELLINGTON
DS824
TD9636 cons_worldwide_trop_cyclone_18710101-19891231-005:Line=113
TD9635
NEUMANN
MLC

All available IBTrACS Data

SEASON BASIN SUBBASIN ISO_TIME_________ NATURE LAT LON WMO AGENCY DIST2LAND LANDFALL IFLAG USA SSHS REUNION LAT REUNION LON REUNION TYPE REUNION TNUM TD9636 LAT TD9636 LON TD9636 STAGE STORM SPEED STORM DIR
Year degrees north degrees east km km 1 degrees north degrees east 1 degrees north degrees east kts degrees
1855 SI MM 1855-01-21 06:00:00 NR -13.95 75.55 reunion 2021 2007 _____O____O___ -1 -13.60 75.90 99 9.90 -14.30 75.20 7 2 229
1855 SI MM 09:00:00 NR -14.02 75.47 2007 1992 _____P____P___ -1 -13.57 75.86 99 -14.47 75.08 7 2 227
1855 SI MM 12:00:00 NR -14.10 75.38 1992 1978 _____P____P___ -1 -13.55 75.82 99 -14.65 74.94 7 3 226
1855 SI MM 15:00:00 NR -14.20 75.28 1978 1964 _____P____P___ -1 -13.54 75.77 99 -14.86 74.79 7 3 224
1855 SI MM 18:00:00 NR -14.34 75.15 1954 1935 _____P____O___ -1 -13.57 75.69 99 -15.10 74.60 7 4 222
1855 SI MM 21:00:00 NR -14.51 74.99 1935 1907 _____P____P___ -1 -13.64 75.60 99 -15.38 74.38 7 5 220
1855 SI MM 1855-01-22 00:00:00 NR -14.73 74.80 1907 1875 _____P____P___ -1 -13.76 75.47 99 -15.69 74.14 7 6 219
1855 SI MM 03:00:00 NR -14.98 74.60 1875 1847 _____P____P___ -1 -13.95 75.31 99 -16.01 73.90 7 7 217
1855 SI MM 06:00:00 NR -15.25 74.40 reunion 1847 1815 _____O____O___ -1 -14.20 75.10 99 9.90 -16.30 73.70 7 7 214
1855 SI MM 09:00:00 NR -15.54 74.20 1815 1784 _____P____P___ -1 -14.53 74.85 99 -16.54 73.56 7 7 212
1855 SI MM 12:00:00 NR -15.85 74.01 1784 1749 _____P____P___ -1 -14.93 74.56 99 -16.76 73.45 7 8 210
1855 SI MM 15:00:00 NR -16.19 73.81 1749 1719 _____P____P___ -1 -15.39 74.26 99 -16.98 73.37 7 8 208
1855 SI MM 18:00:00 NR -16.55 73.62 1716 1686 _____P____O___ -1 -15.90 73.94 99 -17.20 73.30 7 8 207
1855 SI MM 21:00:00 NR -16.92 73.43 1686 1665 _____P____P___ -1 -16.45 73.63 99 -17.39 73.22 7 8 205
1855 SI MM 1855-01-23 00:00:00 NR -17.31 73.25 1654 1634 _____P____P___ -1 -17.02 73.35 99 -17.60 73.15 7 9 202
1855 SI MM 03:00:00 NR -17.73 73.09 1634 1612 _____P____P___ -1 -17.61 73.10 99 -17.85 73.08 7 9 198
1855 SI MM 06:00:00 NR -18.20 72.95 reunion 1612 1581 _____O____O___ -1 -18.20 72.90 99 9.90 -18.20 73.00 7 11 194
1855 SI MM 09:00:00 NR -18.75 72.83 1581 1562 _____P____P___ -1 -18.81 72.79 99 -18.69 72.87 7 12 190
1855 SI MM 12:00:00 NR -19.35 72.73 1562 1555 _____P____P___ -1 -19.44 72.73 99 -19.26 72.73 7 12 187
1855 SI MM 15:00:00 NR -19.98 72.67 1555 1552 _____P____P___ -1 -20.07 72.71 99 -19.88 72.63 7 13 183
1855 SI MM 18:00:00 NR -20.60 72.66 1552 1551 _____P____O___ -1 -20.70 72.72 99 -20.50 72.60 7 12 177
1855 SI MM 21:00:00 NR -21.21 72.73 1551 1551 _____P____P___ -1 -21.30 72.76 99 -21.11 72.69 7 12 172
1855 SI MM 1855-01-24 00:00:00 NR -21.79 72.84 1564 1564 _____P____P___ -1 -21.86 72.83 99 -21.71 72.85 7 11 168
1855 SI MM 03:00:00 NR -22.31 72.97 1589 1589 _____P____P___ -1 -22.37 72.91 99 -22.25 73.03 7 10 166
1855 SI MM 06:00:00 NR -22.75 73.10 reunion 1604 1604 _____O____O___ -1 -22.80 73.00 99 9.90 -22.70 73.20 7 8 166
1855 SI MM 09:00:00 NR -23.06 73.18 1620 1620 _____P____P___ -1 -23.11 73.06 99 -23.01 73.29 7 6 165
1855 SI MM 12:00:00 NR -23.29 73.25 1633 1633 _____P____P___ -1 -23.35 73.14 99 -23.23 73.37 7 4 160
1855 SI MM 15:00:00 NR -23.46 73.33 1637 1637 _____P____P___ -1 -23.53 73.23 99 -23.38 73.43 7 3 154
1855 SI MM 18:00:00 NR -23.59 73.42 1649 1649 _____P____O___ -1 -23.67 73.33 99 -23.50 73.50 7 3 146
1855 SI MM 21:00:00 NR -23.71 73.52 1661 1661 _____P____P___ -1 -23.79 73.44 99 -23.63 73.59 7 3 140
1855 SI MM 1855-01-25 00:00:00 NR -23.81 73.62 1673 1673 _____P____P___ -1 -23.89 73.56 99 -23.74 73.69 7 3 137
1855 SI MM 03:00:00 NR -23.92 73.73 1685 1685 _____P____P___ -1 -23.99 73.68 99 -23.86 73.79 7 3 139
1855 SI MM 06:00:00 NR -24.05 73.85 reunion 1707 1707 _____O____O___ -1 -24.10 73.80 99 9.90 -24.00 73.90 7 4 147
1855 SI MM 09:00:00 NR -24.25 73.97 1723 1723 _____P____P___ -1 -24.30 73.92 99 -24.21 74.02 7 5 152
1855 SI MM 12:00:00 NR -24.47 74.09 1738 1738 _____P____P___ -1 -24.50 74.04 99 -24.44 74.14 7 5 153
1855 SI MM 15:00:00 NR -24.69 74.22 1753 1753 _____P____P___ -1 -24.71 74.17 99 -24.68 74.27 7 5 152
1855 SI MM 18:00:00 NR -24.91 74.35 1768 1768 _____P____O___ -1 -24.92 74.30 99 -24.90 74.40 7 5 150
1855 SI MM 21:00:00 NR -25.10 74.48 1792 1792 _____P____P___ -1 -25.12 74.43 99 -25.07 74.53 7 4 148
1855 SI MM 1855-01-26 00:00:00 NR -25.27 74.61 1808 1808 _____P____P___ -1 -25.32 74.56 99 -25.22 74.66 7 4 147
1855 SI MM 03:00:00 NR -25.44 74.73 1820 1820 _____P____P___ -1 -25.52 74.68 99 -25.36 74.78 7 4 146
1855 SI MM 06:00:00 NR -25.60 74.85 reunion 1845 1845 _____O____O___ -1 -25.70 74.80 99 9.90 -25.50 74.90 7 4 147
1855 SI MM 09:00:00 NR -25.76 74.96 1861 1861 _____P____P___ -1 -25.87 74.91 99 -25.65 75.01 7 4 149
1855 SI MM 12:00:00 NR -25.92 75.06 1874 1874 _____P____P___ -1 -26.04 75.02 99 -25.80 75.11 7 4 149
1855 SI MM 15:00:00 NR -26.07 75.16 1889 1889 _____P____P___ -1 -26.19 75.12 99 -25.95 75.20 7 3 149
1855 SI MM 18:00:00 NR -26.22 75.26 1902 1902 _____P____O___ -1 -26.33 75.22 99 -26.10 75.30 7 3 149
1855 SI MM 21:00:00 NR -26.36 75.36 1918 1918 _____P____P___ -1 -26.47 75.32 99 -26.25 75.40 7 3 150
1855 SI MM 1855-01-27 00:00:00 NR -26.51 75.45 1931 1931 _____P____P___ -1 -26.59 75.42 99 -26.40 75.50 7 3 151
1855 SI MM 03:00:00 NR -26.65 75.54 1934 1934 _____P____P___ -1 -26.70 75.51 99 -26.55 75.60 7 3 151
1855 SI MM 06:00:00 NR -26.78 75.62 reunion 1951 1951 _____O____O___ -1 -26.80 75.60 99 9.90 -26.70 75.70 7 3 151
1855 SI MM 09:00:00 NR -26.89 75.69 1963 1963 _____P________ -1 -26.89 75.69 99 7 2 143
1855 SI MM 12:00:00 NR -26.97 75.78 1976 1976 _____P________ -1 -26.97 75.78 99 7 2 133
1855 SI MM 15:00:00 NR -27.04 75.87 1986 1986 _____P________ -1 -27.04 75.87 99 7 2 130
1855 SI MM 18:00:00 NR -27.10 75.95 1998 1998 _____P________ -1 -27.10 75.95 99 2 127
1855 SI MM 21:00:00 NR -27.15 76.04 2002 2002 _____P________ -1 -27.15 76.04 99 2 125
1855 SI MM 1855-01-28 00:00:00 NR -27.20 76.13 2011 2011 _____P________ -1 -27.20 76.13 99 2 123
1855 SI MM 03:00:00 NR -27.25 76.21 2024 2024 _____P________ -1 -27.25 76.21 99 2 122
1855 SI MM 06:00:00 NR -27.30 76.30 reunion 2033 _____O________ -1 -27.30 76.30 99 9.90 2 122